Time;durP1;ratioP1;P1;durP2;ratioP2;P2;SDS_P1;SDS_P2;PMS_P1;PMS_P2;Temp;Humidity;BMP_temperature;BMP_pressure;BME280_temperature;BME280_humidity;BME280_pressure;Samples;Min_cycle;Max_cycle;Signal;HPM_P1;HPM_P2
2022/04/05 00:02:18;;;;;;;6.83;4.93;;;6.90;99.90;;;;;;5016980;28;20461;-44
2022/04/05 00:04:48;;;;;;;8.63;6.60;;;6.90;99.90;;;;;;5017007;28;20482;-52
2022/04/05 00:07:14;;;;;;;7.37;5.10;;;7.30;99.90;;;;;;5016950;28;20418;-46
2022/04/05 00:09:41;;;;;;;7.10;4.00;;;6.90;99.90;;;;;;5017098;28;20517;-45
2022/04/05 00:12:08;;;;;;;14.93;3.73;;;6.80;99.90;;;;;;5017125;28;20863;-46
2022/04/05 00:14:36;;;;;;;4.77;2.63;;;6.70;99.90;;;;;;5017064;28;20438;-45
2022/04/05 00:17:03;;;;;;;4.70;2.80;;;6.50;99.90;;;;;;5016909;28;20450;-50
2022/04/05 00:19:32;;;;;;;3.90;2.40;;;6.40;99.90;;;;;;5016714;28;20441;-46
2022/04/05 00:21:59;;;;;;;4.23;1.67;;;6.20;99.90;;;;;;5016629;28;20485;-48
2022/04/05 00:24:25;;;;;;;2.70;1.13;;;6.20;99.90;;;;;;5016530;28;20533;-48
2022/04/05 00:26:53;;;;;;;3.00;1.57;;;6.00;99.90;;;;;;5016090;28;20470;-49
2022/04/05 00:29:22;;;;;;;1.97;1.23;;;6.00;99.90;;;;;;5016548;28;20465;-52
2022/04/05 00:31:50;;;;;;;5.23;1.93;;;6.00;99.90;;;;;;5016447;28;20438;-49
2022/04/05 00:34:17;;;;;;;5.33;1.23;;;6.00;99.90;;;;;;5016597;28;20466;-50
2022/04/05 00:36:44;;;;;;;2.60;1.47;;;6.00;99.90;;;;;;5016928;28;20450;-48
2022/04/05 00:39:11;;;;;;;2.10;1.70;;;6.00;99.90;;;;;;5016619;28;20438;-47
2022/04/05 00:41:38;;;;;;;2.60;1.20;;;6.00;99.90;;;;;;5017013;28;20442;-48
2022/04/05 00:44:05;;;;;;;5.73;1.30;;;6.10;99.90;;;;;;5016546;28;20450;-42
2022/04/05 00:46:31;;;;;;;6.57;1.77;;;6.10;99.90;;;;;;5016891;28;20426;-46
2022/04/05 00:49:02;;;;;;;2.50;1.40;;;6.10;99.90;;;;;;5016275;28;20470;-48
2022/04/05 00:51:30;;;;;;;3.07;1.50;;;6.20;99.90;;;;;;5017784;28;20453;-46
2022/04/05 00:54:03;;;;;;;3.10;1.40;;;6.20;99.90;;;;;;5020665;28;20473;-45
2022/04/05 00:56:33;;;;;;;2.50;1.90;;;6.30;99.90;;;;;;5020241;28;20430;-48
2022/04/05 00:59:01;;;;;;;2.17;1.53;;;6.30;99.90;;;;;;5020749;28;20465;-47
2022/04/05 01:01:31;;;;;;;6.40;1.67;;;6.30;99.90;;;;;;5020259;28;20429;-51
2022/04/05 01:04:00;;;;;;;3.03;2.30;;;6.30;99.90;;;;;;5019639;28;20465;-50
2022/04/05 01:06:28;;;;;;;4.30;2.23;;;6.40;99.90;;;;;;5020068;28;20504;-49
2022/04/05 01:08:58;;;;;;;5.70;2.47;;;6.40;99.90;;;;;;5020184;28;20453;-53
2022/04/05 01:11:25;;;;;;;3.53;2.70;;;6.50;99.90;;;;;;5020477;28;20461;-48
2022/04/05 01:13:52;;;;;;;4.90;2.77;;;6.50;99.90;;;;;;5019944;28;20480;-46
2022/04/05 01:16:20;;;;;;;4.80;3.10;;;6.50;99.90;;;;;;5020035;28;20521;-48
2022/04/05 01:18:47;;;;;;;6.93;2.87;;;6.60;99.90;;;;;;5020535;28;20430;-48
2022/04/05 01:21:15;;;;;;;3.40;2.50;;;6.60;99.90;;;;;;5020362;28;20461;-47
2022/04/05 01:24:03;;;;;;;6.27;2.77;;;6.60;99.90;;;;;;5020344;28;20445;-45
2022/04/05 01:26:29;;;;;;;5.33;2.80;;;6.60;99.90;;;;;;5020053;28;20480;-49
2022/04/05 01:28:56;;;;;;;3.30;2.50;;;6.60;99.90;;;;;;5019779;28;20485;-48
2022/04/05 01:31:23;;;;;;;3.93;2.87;;;6.70;99.90;;;;;;5019215;28;20434;-48
2022/04/05 01:33:50;;;;;;;4.60;2.57;;;6.70;99.90;;;;;;5019892;28;20742;-47
2022/04/05 01:36:23;;;;;;;3.50;1.83;;;6.70;99.90;;;;;;5019392;28;20427;-47
2022/04/05 01:38:51;;;;;;;6.80;2.53;;;6.70;99.90;;;;;;5019935;28;20454;-51
2022/04/05 01:41:18;;;;;;;8.33;1.87;;;6.60;99.90;;;;;;5019890;28;20465;-53
2022/04/05 01:43:44;;;;;;;1.40;1.23;;;6.60;99.90;;;;;;5019228;28;20442;-49
2022/04/05 01:46:11;;;;;;;2.10;1.90;;;6.50;99.90;;;;;;5019314;28;20486;-46
2022/04/05 01:48:39;;;;;;;2.60;1.57;;;6.50;99.90;;;;;;5019327;28;20477;-58
2022/04/05 01:51:06;;;;;;;4.27;1.10;;;6.40;99.90;;;;;;5018925;28;20465;-55
2022/04/05 01:53:33;;;;;;;1.67;1.33;;;6.30;99.90;;;;;;5019427;28;20474;-52
2022/04/05 01:56:01;;;;;;;2.00;1.30;;;6.40;99.90;;;;;;5019487;28;20450;-50
2022/04/05 01:58:27;;;;;;;4.13;1.27;;;6.40;99.90;;;;;;5018894;28;20434;-47
2022/04/05 02:00:54;;;;;;;2.27;1.03;;;6.40;99.90;;;;;;5018897;28;20438;-52
2022/04/05 02:03:23;;;;;;;3.00;1.33;;;6.40;99.90;;;;;;5018795;28;20434;-47
2022/04/05 02:05:50;;;;;;;2.67;1.00;;;6.40;99.90;;;;;;5019057;28;20474;-46
2022/04/05 02:08:18;;;;;;;6.27;0.90;;;6.40;99.90;;;;;;5018958;28;20452;-48
2022/04/05 02:10:45;;;;;;;1.83;0.90;;;6.40;99.90;;;;;;5018597;28;20448;-52
2022/04/05 02:13:13;;;;;;;2.70;0.83;;;6.40;99.90;;;;;;5018838;28;20466;-47
2022/04/05 02:15:39;;;;;;;5.00;1.70;;;6.30;99.90;;;;;;5018775;28;20438;-48
2022/04/05 02:18:06;;;;;;;10.17;1.47;;;6.40;99.90;;;;;;5018479;28;20454;-47
2022/04/05 02:20:34;;;;;;;4.53;1.30;;;6.40;99.90;;;;;;5018631;28;20437;-45
2022/04/05 02:23:01;;;;;;;6.00;1.17;;;6.40;99.90;;;;;;5018836;28;20422;-45
2022/04/05 02:25:31;;;;;;;1.70;1.00;;;6.30;99.90;;;;;;5018613;28;20471;-47
2022/04/05 02:27:58;;;;;;;4.50;1.40;;;6.30;99.90;;;;;;5018518;28;20477;-45
2022/04/05 02:30:26;;;;;;;6.30;1.97;;;6.40;99.90;;;;;;5018745;28;20449;-49
2022/04/05 02:32:53;;;;;;;11.23;1.97;;;6.40;99.90;;;;;;5018439;28;20446;-48
2022/04/05 02:35:19;;;;;;;3.20;1.73;;;6.30;99.90;;;;;;5018494;28;20454;-48
2022/04/05 02:37:48;;;;;;;3.27;1.57;;;6.30;99.90;;;;;;5019047;28;20430;-47
2022/04/05 02:40:14;;;;;;;6.50;1.40;;;6.30;99.90;;;;;;5018468;28;20530;-51
2022/04/05 02:42:43;;;;;;;4.33;2.37;;;6.30;99.90;;;;;;5018344;28;20469;-48
2022/04/05 02:45:10;;;;;;;4.40;1.23;;;6.30;99.90;;;;;;5017913;28;20469;-48
2022/04/05 02:47:39;;;;;;;10.33;1.53;;;6.30;99.90;;;;;;5017913;28;20449;-46
2022/04/05 02:50:08;;;;;;;3.83;1.83;;;6.20;99.90;;;;;;5018310;28;20446;-48
2022/04/05 02:52:37;;;;;;;1.63;1.00;;;6.30;99.90;;;;;;5017921;28;20521;-47
2022/04/05 02:55:06;;;;;;;2.90;1.67;;;6.30;99.90;;;;;;5018130;28;20430;-48
2022/04/05 02:57:36;;;;;;;6.37;1.20;;;6.30;99.90;;;;;;5018106;28;20470;-45
2022/04/05 03:00:08;;;;;;;3.13;0.87;;;6.30;99.90;;;;;;5017841;28;20449;-48
2022/04/05 03:02:35;;;;;;;4.73;1.40;;;6.20;99.90;;;;;;5018029;28;20537;-48
2022/04/05 03:05:05;;;;;;;4.07;1.17;;;6.20;99.90;;;;;;5017616;28;20469;-49
2022/04/05 03:07:35;;;;;;;12.67;1.70;;;6.20;99.90;;;;;;5017744;28;20442;-44
2022/04/05 03:10:02;;;;;;;11.10;1.40;;;6.30;99.90;;;;;;5018002;28;20465;-51
2022/04/05 03:12:29;;;;;;;1.60;0.90;;;6.20;99.90;;;;;;5017274;28;20460;-47
2022/04/05 03:14:58;;;;;;;9.60;1.77;;;6.30;99.90;;;;;;5017253;28;20454;-50
2022/04/05 03:17:24;;;;;;;1.47;0.90;;;6.20;99.90;;;;;;5017717;28;20467;-43
2022/04/05 03:19:53;;;;;;;5.10;1.00;;;6.20;99.90;;;;;;5017642;28;20485;-47
2022/04/05 03:22:23;;;;;;;3.33;1.10;;;6.30;99.90;;;;;;5017711;28;20481;-50
2022/04/05 03:24:50;;;;;;;5.10;1.37;;;6.30;99.90;;;;;;5017599;28;20500;-50
2022/04/05 03:27:17;;;;;;;6.13;2.90;;;6.30;99.90;;;;;;5018013;28;20433;-47
2022/04/05 03:29:43;;;;;;;4.20;0.93;;;6.30;99.90;;;;;;5017801;28;20454;-47
2022/04/05 03:32:13;;;;;;;3.67;1.43;;;6.30;99.90;;;;;;5017845;28;20447;-47
2022/04/05 03:34:41;;;;;;;4.30;2.10;;;6.30;99.90;;;;;;5017704;28;20438;-47
2022/04/05 03:37:07;;;;;;;2.57;0.90;;;6.30;99.90;;;;;;5017862;28;20438;-46
2022/04/05 03:39:35;;;;;;;2.30;1.13;;;6.30;99.90;;;;;;5017584;28;20445;-50
2022/04/05 03:42:02;;;;;;;9.70;1.30;;;6.30;99.90;;;;;;5017217;28;20466;-48
2022/04/05 03:44:29;;;;;;;2.33;1.33;;;6.30;99.90;;;;;;5017823;28;20450;-44
2022/04/05 03:46:56;;;;;;;2.70;1.17;;;6.30;99.90;;;;;;5017267;28;20538;-47
2022/04/05 03:49:26;;;;;;;4.80;1.20;;;6.40;99.90;;;;;;5017694;28;20446;-47
2022/04/05 03:51:52;;;;;;;4.50;1.47;;;6.50;99.90;;;;;;5017388;28;20442;-49
2022/04/05 03:54:19;;;;;;;5.30;1.17;;;6.30;99.90;;;;;;5017750;28;20414;-48
2022/04/05 03:56:47;;;;;;;5.03;1.53;;;6.30;99.90;;;;;;5017103;28;20422;-47
2022/04/05 03:59:14;;;;;;;6.57;1.57;;;6.40;99.90;;;;;;5017147;28;20469;-53
2022/04/05 04:01:41;;;;;;;2.67;1.50;;;6.30;99.90;;;;;;5017178;28;20493;-47
2022/04/05 04:04:09;;;;;;;6.80;1.30;;;6.30;99.90;;;;;;5017024;28;20461;-46
2022/04/05 04:06:36;;;;;;;3.63;1.10;;;6.40;99.90;;;;;;5017171;28;20466;-50
2022/04/05 04:09:03;;;;;;;6.87;1.17;;;6.30;99.90;;;;;;5017016;28;20524;-44
2022/04/05 04:11:29;;;;;;;8.33;1.33;;;6.30;99.90;;;;;;5017025;28;20462;-46
2022/04/05 04:13:58;;;;;;;3.00;1.33;;;6.30;99.90;;;;;;5017225;28;20430;-45
2022/04/05 04:16:25;;;;;;;3.17;1.27;;;6.30;99.90;;;;;;5017267;28;20446;-48
2022/04/05 04:18:54;;;;;;;5.13;1.17;;;6.20;99.90;;;;;;5017242;28;20446;-45
2022/04/05 04:21:21;;;;;;;3.33;1.57;;;6.20;99.90;;;;;;5017167;28;20448;-49
2022/04/05 04:23:47;;;;;;;3.43;1.60;;;6.20;99.90;;;;;;5016721;28;20433;-47
2022/04/05 04:26:14;;;;;;;2.77;1.50;;;6.10;99.90;;;;;;5000834;28;20494;-46
2022/04/05 04:28:42;;;;;;;5.70;1.60;;;6.10;99.90;;;;;;4998275;28;21005;-47
2022/04/05 04:31:09;;;;;;;3.27;1.10;;;6.10;99.90;;;;;;4997348;28;20469;-46
2022/04/05 04:33:36;;;;;;;7.30;1.10;;;6.10;99.90;;;;;;4998648;28;20430;-44
2022/04/05 04:36:03;;;;;;;3.10;1.33;;;6.10;99.90;;;;;;4998588;28;20520;-43
2022/04/05 04:38:30;;;;;;;8.30;1.33;;;6.20;99.90;;;;;;4999510;28;20469;-49
2022/04/05 04:40:57;;;;;;;2.43;1.03;;;6.10;99.90;;;;;;4998585;28;20457;-48
2022/04/05 04:43:24;;;;;;;5.80;1.43;;;6.10;99.90;;;;;;4999106;28;20535;-43
2022/04/05 04:45:51;;;;;;;9.57;1.87;;;6.10;99.90;;;;;;4999526;28;20980;-45
2022/04/05 04:48:21;;;;;;;13.37;1.30;;;6.10;99.90;;;;;;4999416;28;20481;-46
2022/04/05 04:50:48;;;;;;;7.00;2.60;;;6.00;99.90;;;;;;4999152;28;20449;-45
2022/04/05 04:53:15;;;;;;;6.13;1.90;;;6.00;99.90;;;;;;4998726;28;20449;-51
2022/04/05 04:55:43;;;;;;;5.67;1.87;;;6.00;99.90;;;;;;4998738;28;20438;-44
2022/04/05 04:58:10;;;;;;;4.90;2.37;;;6.00;99.90;;;;;;4998871;28;20438;-45
2022/04/05 05:00:37;;;;;;;7.17;1.23;;;6.00;99.90;;;;;;4998960;28;20473;-50
2022/04/05 05:03:04;;;;;;;4.13;2.57;;;6.00;99.90;;;;;;4998873;28;20461;-47
2022/04/05 05:05:32;;;;;;;3.50;1.10;;;6.10;99.90;;;;;;4998718;28;20856;-45
2022/04/05 05:07:59;;;;;;;4.80;1.63;;;6.10;99.90;;;;;;4998546;28;20454;-49
2022/04/05 05:10:27;;;;;;;9.10;1.40;;;6.10;99.90;;;;;;4998374;28;20474;-46
2022/04/05 05:12:54;;;;;;;9.43;1.80;;;6.10;99.90;;;;;;4998563;28;20562;-49
2022/04/05 05:15:21;;;;;;;1.73;1.10;;;6.10;99.90;;;;;;4998814;28;20481;-48
2022/04/05 05:17:49;;;;;;;4.63;1.73;;;6.20;99.90;;;;;;4998357;28;20548;-47
2022/04/05 05:20:19;;;;;;;2.20;0.80;;;6.90;99.90;;;;;;4998504;28;20462;-45
2022/04/05 05:22:47;;;;;;;5.37;1.73;;;6.20;99.90;;;;;;4998419;28;20474;-47
2022/04/05 05:25:15;;;;;;;6.30;1.47;;;6.20;99.90;;;;;;4999240;28;20902;-43
2022/04/05 05:27:41;;;;;;;19.97;2.40;;;6.20;99.90;;;;;;4998450;28;20814;-49
2022/04/05 05:30:10;;;;;;;8.33;2.60;;;6.20;99.90;;;;;;4998627;28;20520;-46
2022/04/05 05:32:43;;;;;;;6.57;2.10;;;6.10;99.90;;;;;;4998127;28;20470;-46
2022/04/05 05:35:11;;;;;;;9.23;1.80;;;6.20;99.90;;;;;;4998310;28;20517;-45
2022/04/05 05:37:38;;;;;;;10.60;1.90;;;6.20;99.90;;;;;;4997891;28;20446;-45
2022/04/05 05:40:08;;;;;;;7.17;1.30;;;6.20;99.90;;;;;;4998020;28;20945;-46
2022/04/05 05:42:34;;;;;;;10.37;2.13;;;6.20;99.90;;;;;;4998265;28;20527;-46
2022/04/05 05:45:01;;;;;;;6.30;2.27;;;6.30;99.90;;;;;;4998166;28;20465;-43
2022/04/05 05:47:28;;;;;;;4.90;2.07;;;6.30;99.90;;;;;;5007178;28;20482;-43
2022/04/05 05:49:55;;;;;;;4.03;2.57;;;6.30;99.90;;;;;;5008682;28;20469;-47
2022/04/05 05:52:21;;;;;;;10.37;2.70;;;6.40;99.90;;;;;;5018212;28;20468;-45
2022/04/05 05:54:50;;;;;;;18.80;3.07;;;6.40;99.90;;;;;;5010254;28;20466;-44
2022/04/05 05:57:18;;;;;;;12.13;2.67;;;6.50;99.90;;;;;;5000722;28;20477;-47
2022/04/05 05:59:45;;;;;;;4.30;1.90;;;6.50;99.90;;;;;;5008867;28;20910;-44
2022/04/05 06:02:12;;;;;;;5.37;1.60;;;6.50;99.90;;;;;;5017044;28;20462;-47
2022/04/05 06:04:38;;;;;;;5.50;3.07;;;6.50;99.90;;;;;;5016589;28;20449;-49
2022/04/05 06:07:05;;;;;;;8.17;1.93;;;6.50;99.90;;;;;;5016415;28;20478;-47
2022/04/05 06:09:32;;;;;;;2.37;1.07;;;6.50;99.90;;;;;;5016121;28;20538;-45
2022/04/05 06:11:58;;;;;;;4.50;1.67;;;6.50;99.90;;;;;;5015125;28;20473;-45
2022/04/05 06:14:27;;;;;;;2.47;2.07;;;6.60;99.90;;;;;;5016398;28;20434;-47
2022/04/05 06:16:55;;;;;;;3.83;1.90;;;6.60;99.90;;;;;;5015956;28;20464;-44
2022/04/05 06:19:22;;;;;;;8.40;2.30;;;6.50;99.90;;;;;;5015761;28;20430;-43
2022/04/05 06:21:49;;;;;;;14.73;1.77;;;6.50;99.90;;;;;;5015189;28;20442;-49
2022/04/05 06:24:15;;;;;;;3.40;2.10;;;6.50;99.90;;;;;;5014765;28;20472;-48
2022/04/05 06:26:49;;;;;;;2.70;1.57;;;6.50;99.90;;;;;;5015781;28;20486;-43
2022/04/05 06:29:15;;;;;;;8.40;1.90;;;6.50;99.90;;;;;;5015664;28;20482;-42
2022/04/05 06:31:45;;;;;;;10.83;1.83;;;6.50;99.90;;;;;;5016012;28;20448;-46
2022/04/05 06:34:12;;;;;;;7.33;1.50;;;6.50;99.90;;;;;;5016606;28;20499;-44
2022/04/05 06:36:39;;;;;;;5.50;2.23;;;6.50;99.90;;;;;;5016760;28;20435;-45
2022/04/05 06:39:06;;;;;;;4.33;1.93;;;6.50;99.90;;;;;;5016659;28;20466;-45
2022/04/05 06:41:33;;;;;;;2.90;1.57;;;6.60;99.90;;;;;;5015909;28;20434;-45
2022/04/05 06:43:59;;;;;;;6.17;1.30;;;6.70;99.90;;;;;;5015767;28;20457;-47
2022/04/05 06:46:26;;;;;;;6.03;1.80;;;6.70;99.90;;;;;;5016248;28;20478;-47
2022/04/05 06:48:55;;;;;;;4.00;1.63;;;6.70;99.90;;;;;;5015457;28;20470;-44
2022/04/05 06:51:21;;;;;;;8.10;3.07;;;6.60;99.90;;;;;;5016091;28;20448;-50
2022/04/05 06:53:48;;;;;;;7.20;2.17;;;6.60;99.90;;;;;;5015535;28;20493;-46
2022/04/05 06:56:15;;;;;;;6.93;1.90;;;6.70;99.90;;;;;;5015688;28;20477;-44
2022/04/05 06:58:42;;;;;;;9.73;1.50;;;6.60;99.90;;;;;;5015266;28;20470;-49
2022/04/05 07:01:09;;;;;;;4.83;1.33;;;6.70;99.90;;;;;;5015086;28;20512;-45
2022/04/05 07:03:35;;;;;;;8.53;1.63;;;6.70;99.90;;;;;;5014301;28;20470;-50
2022/04/05 07:06:04;;;;;;;7.07;1.67;;;6.80;99.90;;;;;;5013961;28;20502;-44
2022/04/05 07:08:31;;;;;;;11.07;1.37;;;6.80;99.90;;;;;;5013895;28;20469;-42
2022/04/05 07:10:58;;;;;;;3.97;1.13;;;6.80;99.90;;;;;;5014175;28;20434;-45
2022/04/05 07:13:25;;;;;;;3.40;2.77;;;6.80;99.90;;;;;;5014572;28;20449;-44
2022/04/05 07:15:53;;;;;;;6.30;1.33;;;6.80;99.90;;;;;;5015072;28;20430;-47
2022/04/05 07:18:20;;;;;;;3.40;1.73;;;6.90;99.90;;;;;;5013816;28;20469;-44
2022/04/05 07:20:48;;;;;;;4.20;1.17;;;7.00;99.90;;;;;;5013409;28;20434;-45
2022/04/05 07:23:17;;;;;;;3.43;1.07;;;7.10;99.90;;;;;;5013427;28;20446;-43
2022/04/05 07:25:44;;;;;;;4.47;1.63;;;7.10;99.90;;;;;;5014278;28;20454;-41
2022/04/05 07:28:11;;;;;;;1.70;1.10;;;7.10;99.90;;;;;;5014059;28;20476;-43
2022/04/05 07:30:38;;;;;;;2.00;1.10;;;7.10;99.90;;;;;;5013951;28;20473;-44
2022/04/05 07:33:05;;;;;;;2.40;1.30;;;7.20;99.90;;;;;;5013749;28;20876;-48
2022/04/05 07:35:31;;;;;;;2.77;1.60;;;7.30;99.90;;;;;;5013278;28;20445;-47
2022/04/05 07:38:00;;;;;;;7.20;1.53;;;7.30;99.90;;;;;;5013195;28;20440;-41
2022/04/05 07:40:47;;;;;;;3.30;1.00;;;7.40;99.90;;;;;;5012529;28;20442;-48
2022/04/05 07:43:17;;;;;;;9.07;1.80;;;7.50;99.90;;;;;;5012573;28;20462;-44
2022/04/05 07:45:45;;;;;;;5.50;1.20;;;7.50;99.90;;;;;;5013262;28;20450;-41
2022/04/05 07:48:12;;;;;;;12.13;1.97;;;7.40;99.90;;;;;;5013432;28;20477;-41
2022/04/05 07:50:38;;;;;;;2.80;1.27;;;7.40;99.90;;;;;;5012861;28;20558;-45
2022/04/05 07:53:06;;;;;;;15.27;1.77;;;7.40;99.90;;;;;;5011397;28;20442;-44
2022/04/05 07:55:34;;;;;;;4.10;1.37;;;7.50;99.90;;;;;;5011938;28;20469;-41
2022/04/05 07:58:00;;;;;;;1.87;1.20;;;7.60;99.90;;;;;;5011823;28;20469;-45
2022/04/05 08:00:28;;;;;;;4.13;1.27;;;7.60;99.90;;;;;;5011265;28;20470;-44
2022/04/05 08:02:54;;;;;;;3.20;0.93;;;7.60;99.90;;;;;;5011480;28;20457;-49
2022/04/05 08:05:23;;;;;;;1.33;1.10;;;7.70;99.90;;;;;;5012163;28;20470;-46
2022/04/05 08:07:50;;;;;;;3.17;1.33;;;7.80;99.90;;;;;;5012809;28;20489;-41
2022/04/05 08:10:18;;;;;;;1.00;0.80;;;7.70;99.90;;;;;;5013396;28;20477;-44
2022/04/05 08:12:47;;;;;;;1.90;0.80;;;7.80;99.90;;;;;;5012802;28;20488;-45
2022/04/05 08:15:16;;;;;;;3.33;1.37;;;8.20;99.90;;;;;;5011296;28;20470;-42
2022/04/05 08:17:44;;;;;;;6.47;1.23;;;9.10;99.90;;;;;;4973023;28;1037555;-46
2022/04/05 08:20:12;;;;;;;10.73;2.40;;;9.90;99.90;;;;;;5008816;28;20485;-45
2022/04/05 08:22:39;;;;;;;2.30;0.93;;;10.60;99.90;;;;;;5006615;28;20962;-47
2022/04/05 08:25:07;;;;;;;3.03;1.43;;;11.10;99.90;;;;;;5006346;28;20465;-49
2022/04/05 08:27:34;;;;;;;4.27;1.40;;;11.30;99.90;;;;;;5005481;28;20496;-47
2022/04/05 08:30:04;;;;;;;4.40;1.30;;;11.40;99.90;;;;;;5002459;28;20476;-46
2022/04/05 08:32:30;;;;;;;2.17;1.20;;;12.10;99.90;;;;;;5003249;28;20461;-47
2022/04/05 08:34:57;;;;;;;5.90;1.63;;;12.30;99.90;;;;;;5003307;28;20541;-44
2022/04/05 08:37:24;;;;;;;5.63;1.30;;;12.40;99.90;;;;;;5002029;28;20446;-46
2022/04/05 08:39:51;;;;;;;6.00;1.70;;;13.00;98.10;;;;;;5000981;28;20509;-49
2022/04/05 08:42:17;;;;;;;3.83;1.30;;;13.40;96.40;;;;;;5000779;28;20561;-48
2022/04/05 08:44:44;;;;;;;2.90;1.33;;;13.70;95.80;;;;;;5000948;28;20537;-48
2022/04/05 08:47:14;;;;;;;2.67;1.27;;;14.30;93.20;;;;;;5000792;28;20783;-46
2022/04/05 08:49:41;;;;;;;2.93;1.13;;;13.90;88.80;;;;;;5001046;28;20470;-47
2022/04/05 08:52:09;;;;;;;2.60;0.90;;;13.70;90.60;;;;;;5001890;28;20898;-46
2022/04/05 08:54:36;;;;;;;3.23;2.10;;;13.80;89.80;;;;;;5002176;28;20465;-46
2022/04/05 08:57:03;;;;;;;6.37;1.80;;;13.60;86.80;;;;;;5003493;28;20430;-46
2022/04/05 08:59:30;;;;;;;4.60;1.33;;;13.40;86.00;;;;;;5003383;28;20478;-44
2022/04/05 09:01:57;;;;;;;5.30;1.47;;;13.50;85.50;;;;;;5002955;28;20884;-46
2022/04/05 09:04:25;;;;;;;1.73;1.20;;;13.50;86.20;;;;;;5003213;28;20450;-45
2022/04/05 09:06:52;;;;;;;3.67;1.27;;;13.40;85.60;;;;;;5001788;28;20771;-49
2022/04/05 09:09:21;;;;;;;7.03;1.70;;;13.20;83.60;;;;;;5002772;28;20533;-46
2022/04/05 09:11:49;;;;;;;12.90;1.27;;;12.50;85.20;;;;;;5002686;28;20987;-44
2022/04/05 09:14:22;;;;;;;3.70;1.30;;;12.20;87.80;;;;;;5006975;28;20441;-47
2022/04/05 09:17:05;;;;;;;1.30;1.07;;;11.70;90.50;;;;;;5007511;28;20460;-50
2022/04/05 09:19:38;;;;;;;1.57;1.00;;;11.60;91.30;;;;;;5006781;28;20434;-47
2022/04/05 09:22:05;;;;;;;3.53;1.40;;;12.00;88.60;;;;;;5005611;28;20441;-52
2022/04/05 09:24:34;;;;;;;3.33;1.60;;;11.80;88.30;;;;;;5006361;28;20839;-47
2022/04/05 09:27:01;;;;;;;6.13;1.70;;;11.40;90.30;;;;;;5007211;28;20492;-48
2022/04/05 09:29:38;;;;;;;2.90;0.90;;;11.00;91.50;;;;;;5007827;28;20481;-46
2022/04/05 09:32:05;;;;;;;2.90;1.20;;;10.50;93.80;;;;;;5009438;28;20899;-48
2022/04/05 09:34:32;;;;;;;8.30;1.60;;;10.00;98.00;;;;;;5011243;28;20446;-48
2022/04/05 09:37:09;;;;;;;2.20;1.17;;;9.60;99.90;;;;;;5012045;28;20445;-50
2022/04/05 09:39:36;;;;;;;5.63;1.20;;;9.80;99.90;;;;;;5011762;28;20881;-45
2022/04/05 09:42:07;;;;;;;3.20;1.10;;;9.60;99.90;;;;;;5011428;28;20466;-45
2022/04/05 09:44:37;;;;;;;2.37;1.07;;;9.50;99.90;;;;;;5012155;28;20518;-45
2022/04/05 09:47:06;;;;;;;4.80;1.47;;;9.30;99.90;;;;;;5014538;28;20485;-46
2022/04/05 09:49:35;;;;;;;3.30;1.43;;;8.90;99.90;;;;;;5013859;28;20514;-43
2022/04/05 09:52:04;;;;;;;2.20;1.30;;;8.70;99.90;;;;;;5015106;28;20482;-44
2022/04/05 09:54:32;;;;;;;3.00;2.80;;;8.60;99.90;;;;;;5015340;28;20450;-45
2022/04/05 09:57:06;;;;;;;1.90;1.03;;;8.60;99.90;;;;;;5015165;28;20453;-48
2022/04/05 09:59:40;;;;;;;3.37;1.20;;;8.30;99.90;;;;;;5014760;28;20439;-49
2022/04/05 10:02:15;;;;;;;3.33;1.23;;;8.30;99.90;;;;;;5015304;28;20468;-47
2022/04/05 10:05:01;;;;;;;1.97;0.93;;;8.20;99.90;;;;;;5014354;28;20456;-50
2022/04/05 10:07:31;;;;;;;3.07;1.23;;;8.30;99.90;;;;;;5011812;28;20481;-46
2022/04/05 10:09:59;;;;;;;1.77;1.00;;;8.40;99.90;;;;;;5011225;28;20986;-46
2022/04/05 10:12:27;;;;;;;6.93;1.50;;;8.60;99.90;;;;;;5011893;28;20431;-47
2022/04/05 10:14:54;;;;;;;3.13;1.63;;;9.00;99.90;;;;;;5012132;28;20469;-49
2022/04/05 10:17:23;;;;;;;6.87;4.33;;;9.10;99.90;;;;;;5011213;28;20483;-46
2022/04/05 10:19:54;;;;;;;8.20;1.50;;;9.20;99.90;;;;;;5011289;28;20442;-49
2022/04/05 10:22:23;;;;;;;4.30;0.90;;;9.20;99.90;;;;;;5010205;28;20820;-50
2022/04/05 10:24:53;;;;;;;5.60;1.50;;;9.30;99.90;;;;;;5009735;28;20438;-49
2022/04/05 10:27:21;;;;;;;4.20;2.37;;;9.40;99.90;;;;;;5010031;28;20530;-49
2022/04/05 10:29:54;;;;;;;8.23;1.43;;;9.40;99.90;;;;;;5010122;28;20468;-50
2022/04/05 10:32:32;;;;;;;2.77;1.13;;;9.40;99.90;;;;;;5010480;28;20566;-47
2022/04/05 10:35:04;;;;;;;5.90;1.07;;;9.30;99.90;;;;;;5010491;28;20464;-45
2022/04/05 10:37:33;;;;;;;2.30;1.00;;;9.60;99.90;;;;;;5011040;28;20505;-47
2022/04/05 10:40:25;;;;;;;2.50;1.10;;;9.70;99.90;;;;;;5010484;28;20456;-44
2022/04/05 10:42:53;;;;;;;4.57;1.33;;;9.70;99.90;;;;;;4999608;28;20469;-48
2022/04/05 10:45:21;;;;;;;2.30;1.20;;;9.80;99.90;;;;;;5010643;28;20484;-44
2022/04/05 10:47:59;;;;;;;2.87;1.77;;;9.60;99.90;;;;;;5010248;28;20470;-47
2022/04/05 10:50:26;;;;;;;2.23;1.20;;;9.60;99.90;;;;;;5009397;28;20512;-46
2022/04/05 10:53:11;;;;;;;2.03;1.07;;;9.70;99.90;;;;;;5009987;28;20481;-45
2022/04/05 10:56:11;;;;;;;1.53;1.10;;;9.50;99.90;;;;;;5011664;28;20466;-45
2022/04/05 10:58:55;;;;;;;4.10;1.30;;;9.30;99.90;;;;;;5010265;28;20443;-44
2022/04/05 11:01:24;;;;;;;4.37;1.20;;;9.40;99.90;;;;;;4996541;28;20478;-49
2022/04/05 11:04:23;;;;;;;2.73;1.43;;;9.70;99.90;;;;;;5008146;28;20458;-48
2022/04/05 11:07:10;;;;;;;4.17;1.30;;;9.90;99.90;;;;;;5001113;28;20481;-50
2022/04/05 11:09:43;;;;;;;6.20;1.43;;;10.00;99.90;;;;;;5008625;28;20534;-47
2022/04/05 11:12:12;;;;;;;3.53;1.27;;;10.10;99.90;;;;;;5008005;28;20498;-43
2022/04/05 11:14:42;;;;;;;2.70;1.13;;;10.20;99.90;;;;;;5007264;28;20453;-48
2022/04/05 11:17:10;;;;;;;1.80;1.20;;;10.20;99.90;;;;;;5007347;28;20460;-48
2022/04/05 11:19:39;;;;;;;10.97;1.10;;;10.30;99.90;;;;;;5007492;28;20454;-46
2022/04/05 11:22:07;;;;;;;3.27;1.23;;;10.40;99.90;;;;;;5007912;28;20476;-49
2022/04/05 11:24:52;;;;;;;10.23;1.03;;;10.20;99.90;;;;;;5009164;28;20915;-46
2022/04/05 11:27:30;;;;;;;2.93;1.00;;;10.00;99.90;;;;;;5007923;28;20465;-45
2022/04/05 11:30:37;;;;;;;2.07;1.23;;;9.90;99.90;;;;;;5008474;28;20452;-45
2022/04/05 11:33:47;;;;;;;3.87;1.37;;;9.80;99.90;;;;;;5009178;28;20441;-51
2022/04/05 11:36:15;;;;;;;1.40;1.00;;;9.70;99.90;;;;;;4967858;28;20475;-47
2022/04/05 11:38:46;;;;;;;2.00;0.73;;;9.50;99.90;;;;;;5000874;28;20437;-49
2022/04/05 11:41:22;;;;;;;2.97;1.20;;;9.50;99.90;;;;;;5009268;28;20497;-49
2022/04/05 11:43:51;;;;;;;7.60;1.37;;;9.50;99.90;;;;;;5009293;28;20453;-44
2022/04/05 11:46:20;;;;;;;2.27;0.97;;;9.40;99.90;;;;;;5009240;28;20470;-48
2022/04/05 11:48:50;;;;;;;5.27;1.30;;;9.30;99.90;;;;;;5009405;28;20477;-43
2022/04/05 11:51:18;;;;;;;2.87;1.70;;;9.20;99.90;;;;;;5009526;28;20476;-46
2022/04/05 11:53:46;;;;;;;1.20;0.73;;;9.50;99.90;;;;;;5010775;28;20864;-47
2022/04/05 11:56:24;;;;;;;3.83;1.13;;;9.30;99.90;;;;;;5011344;28;20466;-47
2022/04/05 11:58:52;;;;;;;1.10;0.80;;;9.20;99.90;;;;;;5010692;28;20477;-46
2022/04/05 12:01:24;;;;;;;5.30;1.83;;;9.40;99.90;;;;;;5010624;28;20481;-48
2022/04/05 12:03:54;;;;;;;3.97;1.10;;;9.50;99.90;;;;;;5009100;28;20449;-47
2022/04/05 12:06:23;;;;;;;2.20;0.90;;;9.60;99.90;;;;;;5008523;28;20478;-47
2022/04/05 12:08:52;;;;;;;4.27;2.13;;;9.50;99.90;;;;;;5009286;28;20517;-44
2022/04/05 12:11:20;;;;;;;4.80;0.97;;;9.60;99.90;;;;;;5009176;28;20509;-46
2022/04/05 12:13:57;;;;;;;2.20;0.80;;;9.60;99.90;;;;;;5009479;28;20415;-45
2022/04/05 12:16:26;;;;;;;5.33;1.10;;;9.70;99.90;;;;;;5008780;28;20484;-52
2022/04/05 12:18:54;;;;;;;5.47;1.13;;;10.20;99.90;;;;;;5008623;28;20805;-46
2022/04/05 12:21:24;;;;;;;9.10;2.53;;;9.90;99.90;;;;;;5008494;28;20475;-46
2022/04/05 12:23:52;;;;;;;10.20;1.40;;;9.90;99.90;;;;;;5008702;28;20426;-51
2022/04/05 12:26:21;;;;;;;2.47;1.20;;;9.70;99.90;;;;;;5009921;28;20465;-48
2022/04/05 12:28:50;;;;;;;2.77;1.60;;;9.60;99.90;;;;;;5010020;28;20506;-49
2022/04/05 12:31:19;;;;;;;2.37;1.20;;;9.50;99.90;;;;;;5009972;28;20477;-45
2022/04/05 12:33:59;;;;;;;5.77;1.30;;;9.50;99.90;;;;;;5009999;28;20461;-50
2022/04/05 12:36:31;;;;;;;2.27;1.00;;;9.60;99.90;;;;;;5008885;28;20480;-48
2022/04/05 12:38:58;;;;;;;5.00;1.40;;;9.60;99.90;;;;;;5008950;28;20891;-49
2022/04/05 12:41:25;;;;;;;2.23;1.20;;;9.70;99.90;;;;;;5008605;28;20450;-44
2022/04/05 12:44:10;;;;;;;1.73;1.30;;;9.70;99.90;;;;;;5008209;28;20457;-50
2022/04/05 12:46:42;;;;;;;2.70;1.40;;;9.70;99.90;;;;;;5009109;28;20561;-46
2022/04/05 12:49:28;;;;;;;8.33;2.10;;;9.70;99.90;;;;;;5012476;28;20473;-46
2022/04/05 12:52:09;;;;;;;1.57;1.47;;;9.70;99.90;;;;;;5012143;28;20473;-50
2022/04/05 12:54:37;;;;;;;2.00;1.40;;;9.70;99.90;;;;;;5012541;28;20497;-50
2022/04/05 12:57:27;;;;;;;1.63;1.20;;;9.70;99.90;;;;;;5011734;28;20470;-51
2022/04/05 13:00:07;;;;;;;2.23;1.40;;;9.80;99.90;;;;;;5012650;28;20449;-48
2022/04/05 13:02:37;;;;;;;4.13;1.60;;;9.80;99.90;;;;;;5013306;28;20484;-47
2022/04/05 13:07:58;;;;;;;2.70;1.40;;;10.00;99.90;;;;;;5013021;28;20452;-47
2022/04/05 13:10:33;;;;;;;3.33;1.10;;;9.90;99.90;;;;;;5012833;28;20516;-45